Time;durP1;ratioP1;P1;durP2;ratioP2;P2;SDS_P1;SDS_P2;PMS_P1;PMS_P2;Temp;Humidity;BMP_temperature;BMP_pressure;BME280_temperature;BME280_humidity;BME280_pressure;Samples;Min_cycle;Max_cycle;Signal;HPM_P1;HPM_P2
2022/04/12 00:00:00;;;;;;;;;;;;;;;;;;1278367;23;959;-47
2022/04/12 00:00:31;;;;;;;;;;;;;;;;;;1278576;23;1075;-47
2022/04/12 00:01:02;;;;;;;;;;;;;;;;;;1278312;23;814;-47
2022/04/12 00:01:33;;;;;;;;;;;;;;;;;;1278662;23;825;-47
2022/04/12 00:02:04;;;;;;;;;;;;;;;;;;1278528;23;813;-47
2022/04/12 00:02:34;;;;;;;;;;;;;;;;;;1278415;23;920;-45
2022/04/12 00:03:06;;;;;;;;;;;;;;;;;;1278119;23;889;-46
2022/04/12 00:03:36;;;;;;;;;;;;;;;;;;1278118;23;1718;-46
2022/04/12 00:04:06;;;;;;;;;;;;;;;;;;1278246;23;861;-46
2022/04/12 00:04:37;;;;;;;;;;;;;;;;;;1278375;23;979;-46
2022/04/12 00:05:11;;;;;;;;;;;;;;;;;;1278243;23;806;-46
2022/04/12 00:05:41;;;;;;;;;;;;;;;;;;1277719;23;984;-46
2022/04/12 00:06:12;;;;;;;;;;;;;;;;;;1278742;23;833;-46
2022/04/12 00:06:42;;;;;;;;;;;;;;;;;;1278136;23;829;-46
2022/04/12 00:07:14;;;;;;;;;;;;;;;;;;1278682;23;868;-46
2022/04/12 00:07:44;;;;;;;;;;;;;;;;;;1278480;23;978;-46
2022/04/12 00:08:15;;;;;;;;;;;;;;;;;;1278126;23;749;-47
2022/04/12 00:08:45;;;;;;;;;;;;;;;;;;1278447;23;889;-46
2022/04/12 00:09:15;;;;;;;;;;;;;;;;;;1278750;23;900;-46
2022/04/12 00:09:46;;;;;;;;;;;;;;;;;;1278350;23;892;-45
2022/04/12 00:10:16;;;;;;;;;;;;;;;;;;1278762;23;746;-46
2022/04/12 00:10:47;;;;;;;;;;;;;;;;;;1271915;23;924;-46
2022/04/12 00:11:17;;;;;;;;;;;;;;;;;;1271882;23;1307;-46
2022/04/12 00:11:47;;;;;;;;;;;;;;;;;;1271945;23;775;-46
2022/04/12 00:12:18;;;;;;;;;;;;;;;;;;1272461;23;1225;-45
2022/04/12 00:12:49;;;;;;;;;;;;;;;;;;1278027;23;943;-46
2022/04/12 00:13:19;;;;;;;;;;;;;;;;;;1278717;23;881;-46
2022/04/12 00:13:50;;;;;;;;;;;;;;;;;;1278461;23;805;-46
2022/04/12 00:14:20;;;;;;;;;;;;;;;;;;1278571;23;1016;-46
2022/04/12 00:14:51;;;;;;;;;;;;;;;;;;1278615;23;873;-46
2022/04/12 00:15:21;;;;;;;;;;;;;;;;;;1278451;23;762;-46
2022/04/12 00:15:53;;;;;;;;;;;;;;;;;;1278206;23;1941;-47
2022/04/12 00:16:23;;;;;;;;;;;;;;;;;;1278968;23;821;-46
2022/04/12 00:19:02;;;;;;;;;;;;;;;;;;1278392;23;826;-47
2022/04/12 00:19:25;;;;;;;;;;;;;;;;;;1279090;23;896;-46
2022/04/12 00:19:56;;;;;;;;;;;;;;;;;;1278537;23;773;-46
2022/04/12 00:20:27;;;;;;;;;;;;;;;;;;1278889;23;948;-46
2022/04/12 00:20:58;;;;;;;;;;;;;;;;;;1278655;23;774;-46
2022/04/12 00:21:34;;;;;;;;;;;;;;;;;;1278717;23;770;-46
2022/04/12 00:22:04;;;;;;;;;;;;;;;;;;1278585;23;754;-46
2022/04/12 00:22:34;;;;;;;;;;;;;;;;;;1278792;23;837;-47
2022/04/12 00:23:05;;;;;;;;;;;;;;;;;;1277991;23;773;-47
2022/04/12 00:23:35;;;;;;;;;;;;;;;;;;1276699;23;991;-47
2022/04/12 00:24:06;;;;;;;;;;;;;;;;;;1278626;23;877;-46
2022/04/12 00:24:36;;;;;;;;;;;;;;;;;;1278396;23;925;-47
2022/04/12 00:25:09;;;;;;;;;;;;;;;;;;1278383;23;790;-47
2022/04/12 00:25:40;;;;;;;;;;;;;;;;;;1278239;23;825;-47
2022/04/12 00:26:10;;;;;;;;;;;;;;;;;;1278468;23;897;-46
2022/04/12 00:26:40;;;;;;;;;;;;;;;;;;1278427;23;743;-47
2022/04/12 00:27:13;;;;;;;;;;;;;;;;;;1278972;23;893;-47
2022/04/12 00:27:43;;;;;;;;;;;;;;;;;;1279055;23;829;-47
2022/04/12 00:28:14;;;;;;;;;;;;;;;;;;1278961;23;869;-47
2022/04/12 00:28:45;;;;;;;;;;;;;;;;;;1278313;23;838;-47
2022/04/12 00:29:15;;;;;;;;;;;;;;;;;;1278915;23;790;-46
2022/04/12 00:29:46;;;;;;;;;;;;;;;;;;1271709;23;1167;-46
2022/04/12 00:30:16;;;;;;;;;;;;;;;;;;1271704;23;794;-47
2022/04/12 00:30:47;;;;;;;;;;;;;;;;;;1272004;23;999;-47
2022/04/12 00:31:17;;;;;;;;;;;;;;;;;;1272202;23;904;-47
2022/04/12 00:31:47;;;;;;;;;;;;;;;;;;1278505;23;853;-47
2022/04/12 00:32:17;;;;;;;;;;;;;;;;;;1278582;23;969;-47
2022/04/12 00:32:50;;;;;;;;;;;;;;;;;;1278405;23;889;-47
2022/04/12 00:33:20;;;;;;;;;;;;;;;;;;1279021;23;1118;-47
2022/04/12 00:33:51;;;;;;;;;;;;;;;;;;1278141;23;1342;-46
2022/04/12 00:34:21;;;;;;;;;;;;;;;;;;1278903;23;829;-47
2022/04/12 00:34:51;;;;;;;;;;;;;;;;;;1278606;23;984;-47
2022/04/12 00:35:23;;;;;;;;;;;;;;;;;;1278704;23;836;-47
2022/04/12 00:35:56;;;;;;;;;;;;;;;;;;1278463;23;1944;-47
2022/04/12 00:36:26;;;;;;;;;;;;;;;;;;1278832;23;805;-47
2022/04/12 00:36:56;;;;;;;;;;;;;;;;;;1278529;23;833;-47
2022/04/12 00:37:27;;;;;;;;;;;;;;;;;;1278456;23;932;-47
2022/04/12 00:37:57;;;;;;;;;;;;;;;;;;1277881;23;1264;-47
2022/04/12 00:38:33;;;;;;;;;;;;;;;;;;1278819;23;1168;-47
2022/04/12 00:39:04;;;;;;;;;;;;;;;;;;1278325;23;947;-47
2022/04/12 00:39:34;;;;;;;;;;;;;;;;;;1271946;23;881;-47
2022/04/12 00:40:05;;;;;;;;;;;;;;;;;;1271616;23;1029;-47
2022/04/12 00:40:35;;;;;;;;;;;;;;;;;;1271459;23;838;-47
2022/04/12 00:41:08;;;;;;;;;;;;;;;;;;1271554;23;857;-47
2022/04/12 00:41:38;;;;;;;;;;;;;;;;;;1278373;23;932;-47
2022/04/12 00:42:09;;;;;;;;;;;;;;;;;;1277860;23;917;-47
2022/04/12 00:42:39;;;;;;;;;;;;;;;;;;1278113;23;837;-47
2022/04/12 00:43:09;;;;;;;;;;;;;;;;;;1278350;23;829;-47
2022/04/12 00:43:42;;;;;;;;;;;;;;;;;;1278238;23;876;-47
2022/04/12 00:44:12;;;;;;;;;;;;;;;;;;1278318;23;1802;-47
2022/04/12 00:44:42;;;;;;;;;;;;;;;;;;1278194;23;849;-47
2022/04/12 00:45:13;;;;;;;;;;;;;;;;;;1278212;23;856;-46
2022/04/12 00:45:43;;;;;;;;;;;;;;;;;;1278166;23;912;-47
2022/04/12 00:46:13;;;;;;;;;;;;;;;;;;1278427;23;972;-47
2022/04/12 00:46:44;;;;;;;;;;;;;;;;;;1278434;23;948;-47
2022/04/12 00:47:14;;;;;;;;;;;;;;;;;;1278031;23;876;-46
2022/04/12 00:47:45;;;;;;;;;;;;;;;;;;1278131;23;1120;-47
2022/04/12 00:48:15;;;;;;;;;;;;;;;;;;1278003;23;948;-46
2022/04/12 00:48:45;;;;;;;;;;;;;;;;;;1277837;23;876;-47
2022/04/12 00:49:16;;;;;;;;;;;;;;;;;;1278162;23;944;-47
2022/04/12 00:49:46;;;;;;;;;;;;;;;;;;1277664;23;797;-47
2022/04/12 00:50:16;;;;;;;;;;;;;;;;;;1278268;23;794;-47
2022/04/12 00:50:47;;;;;;;;;;;;;;;;;;1277964;23;909;-47
2022/04/12 00:51:17;;;;;;;;;;;;;;;;;;1278211;23;928;-47
2022/04/12 00:51:48;;;;;;;;;;;;;;;;;;1277963;23;860;-48
2022/04/12 00:52:18;;;;;;;;;;;;;;;;;;1277878;23;853;-46
2022/04/12 00:52:49;;;;;;;;;;;;;;;;;;1277693;23;861;-47
2022/04/12 00:53:20;;;;;;;;;;;;;;;;;;1277943;23;1716;-47
2022/04/12 00:53:51;;;;;;;;;;;;;;;;;;1277852;23;988;-47
2022/04/12 00:54:23;;;;;;;;;;;;;;;;;;1278307;23;1545;-47
2022/04/12 00:54:54;;;;;;;;;;;;;;;;;;1277767;23;846;-47
2022/04/12 00:55:24;;;;;;;;;;;;;;;;;;1278413;23;810;-47
2022/04/12 00:55:55;;;;;;;;;;;;;;;;;;1277511;23;1944;-47
2022/04/12 00:56:25;;;;;;;;;;;;;;;;;;1278843;23;940;-47
2022/04/12 00:56:55;;;;;;;;;;;;;;;;;;1278007;23;881;-47
2022/04/12 00:57:26;;;;;;;;;;;;;;;;;;1278737;23;845;-47
2022/04/12 00:57:56;;;;;;;;;;;;;;;;;;1278529;23;817;-47
2022/04/12 00:58:27;;;;;;;;;;;;;;;;;;1278203;23;912;-47
2022/04/12 00:59:00;;;;;;;;;;;;;;;;;;1278331;23;924;-47
2022/04/12 00:59:31;;;;;;;;;;;;;;;;;;1278885;23;884;-47
2022/04/12 01:00:04;;;;;;;;;;;;;;;;;;1278017;23;798;-47
2022/04/12 01:00:34;;;;;;;;;;;;;;;;;;1278900;23;1192;-47
2022/04/12 01:01:05;;;;;;;;;;;;;;;;;;1277990;23;909;-47
2022/04/12 01:01:35;;;;;;;;;;;;;;;;;;1277985;23;778;-49
2022/04/12 01:02:06;;;;;;;;;;;;;;;;;;1277948;23;1059;-47
2022/04/12 01:02:37;;;;;;;;;;;;;;;;;;1278217;23;525;-47
2022/04/12 01:03:07;;;;;;;;;;;;;;;;;;1277840;23;889;-47
2022/04/12 01:03:37;;;;;;;;;;;;;;;;;;1278928;23;802;-47
2022/04/12 01:04:08;;;;;;;;;;;;;;;;;;1278187;23;856;-47
2022/04/12 01:04:38;;;;;;;;;;;;;;;;;;1278748;23;876;-47
2022/04/12 01:05:08;;;;;;;;;;;;;;;;;;1277931;23;833;-46
2022/04/12 01:05:39;;;;;;;;;;;;;;;;;;1277970;23;852;-47
2022/04/12 01:06:09;;;;;;;;;;;;;;;;;;1277651;23;761;-47
2022/04/12 01:06:40;;;;;;;;;;;;;;;;;;1278079;23;983;-46
2022/04/12 01:07:11;;;;;;;;;;;;;;;;;;1277443;23;916;-47
2022/04/12 01:07:42;;;;;;;;;;;;;;;;;;1277893;23;1137;-46
2022/04/12 01:08:12;;;;;;;;;;;;;;;;;;1277835;23;801;-47
2022/04/12 01:08:42;;;;;;;;;;;;;;;;;;1278065;23;907;-46
2022/04/12 01:09:13;;;;;;;;;;;;;;;;;;1277923;23;916;-47
2022/04/12 01:09:43;;;;;;;;;;;;;;;;;;1277760;23;888;-47
2022/04/12 01:10:15;;;;;;;;;;;;;;;;;;1278064;23;852;-47
2022/04/12 01:10:46;;;;;;;;;;;;;;;;;;1277811;23;813;-48
2022/04/12 01:11:16;;;;;;;;;;;;;;;;;;1278152;23;912;-47
2022/04/12 01:11:48;;;;;;;;;;;;;;;;;;1277849;23;935;-47
2022/04/12 01:12:21;;;;;;;;;;;;;;;;;;1277761;23;888;-47
2022/04/12 01:12:52;;;;;;;;;;;;;;;;;;1277924;23;932;-48
2022/04/12 01:13:22;;;;;;;;;;;;;;;;;;1277747;23;754;-47
2022/04/12 01:13:52;;;;;;;;;;;;;;;;;;1278388;23;904;-47
2022/04/12 01:14:24;;;;;;;;;;;;;;;;;;1278670;23;916;-47
2022/04/12 01:14:55;;;;;;;;;;;;;;;;;;1270303;23;1215;-47
2022/04/12 01:15:25;;;;;;;;;;;;;;;;;;1271401;23;936;-47
2022/04/12 01:15:55;;;;;;;;;;;;;;;;;;1271066;23;1943;-47
2022/04/12 01:16:26;;;;;;;;;;;;;;;;;;1271175;23;947;-47
2022/04/12 01:16:56;;;;;;;;;;;;;;;;;;1278016;23;921;-47
2022/04/12 01:17:26;;;;;;;;;;;;;;;;;;1277873;23;877;-48
2022/04/12 01:17:57;;;;;;;;;;;;;;;;;;1277902;23;758;-46
2022/04/12 01:18:27;;;;;;;;;;;;;;;;;;1277933;23;904;-47
2022/04/12 01:18:57;;;;;;;;;;;;;;;;;;1277650;23;833;-47
2022/04/12 01:19:28;;;;;;;;;;;;;;;;;;1278205;23;868;-47
2022/04/12 01:19:58;;;;;;;;;;;;;;;;;;1277736;23;778;-47
2022/04/12 01:20:31;;;;;;;;;;;;;;;;;;1278079;23;773;-47
2022/04/12 01:21:02;;;;;;;;;;;;;;;;;;1277875;23;809;-47
2022/04/12 01:21:35;;;;;;;;;;;;;;;;;;1277806;23;750;-47
2022/04/12 01:22:08;;;;;;;;;;;;;;;;;;1277215;23;1113;-47
2022/04/12 01:22:49;;;;;;;;;;;;;;;;;;1278301;23;893;-47
2022/04/12 01:23:27;;;;;;;;;;;;;;;;;;1278919;23;897;-47
2022/04/12 01:24:04;;;;;;;;;;;;;;;;;;1278531;23;782;-47
2022/04/12 01:24:35;;;;;;;;;;;;;;;;;;1278470;23;944;-47
2022/04/12 01:25:05;;;;;;;;;;;;;;;;;;1278568;23;856;-47
2022/04/12 01:25:37;;;;;;;;;;;;;;;;;;1278712;23;763;-47
2022/04/12 01:26:07;;;;;;;;;;;;;;;;;;1278252;23;873;-47
2022/04/12 01:26:38;;;;;;;;;;;;;;;;;;1278309;23;1134;-47
2022/04/12 01:27:12;;;;;;;;;;;;;;;;;;1278315;23;893;-47
2022/04/12 01:27:42;;;;;;;;;;;;;;;;;;1278344;23;948;-47
2022/04/12 01:28:12;;;;;;;;;;;;;;;;;;1278496;23;781;-47
2022/04/12 01:28:43;;;;;;;;;;;;;;;;;;1276240;23;1009;-47
2022/04/12 01:29:14;;;;;;;;;;;;;;;;;;1277830;23;1656;-47
2022/04/12 01:29:47;;;;;;;;;;;;;;;;;;1277347;23;920;-47
2022/04/12 01:30:17;;;;;;;;;;;;;;;;;;1278574;23;912;-46
2022/04/12 01:30:50;;;;;;;;;;;;;;;;;;1278104;23;789;-47
2022/04/12 01:31:20;;;;;;;;;;;;;;;;;;1278184;23;968;-47
2022/04/12 01:31:51;;;;;;;;;;;;;;;;;;1277859;23;821;-47
2022/04/12 01:32:21;;;;;;;;;;;;;;;;;;1277874;23;1154;-47
2022/04/12 01:32:51;;;;;;;;;;;;;;;;;;1278174;23;947;-47
2022/04/12 01:33:22;;;;;;;;;;;;;;;;;;1278392;23;1247;-47
2022/04/12 01:33:55;;;;;;;;;;;;;;;;;;1278166;23;841;-47
2022/04/12 01:34:25;;;;;;;;;;;;;;;;;;1278420;23;797;-47
2022/04/12 01:34:56;;;;;;;;;;;;;;;;;;1277671;23;1026;-47
2022/04/12 01:35:26;;;;;;;;;;;;;;;;;;1278448;23;837;-47
2022/04/12 01:35:57;;;;;;;;;;;;;;;;;;1278185;23;1901;-47
2022/04/12 01:36:27;;;;;;;;;;;;;;;;;;1278393;23;868;-47
2022/04/12 01:36:58;;;;;;;;;;;;;;;;;;1277652;23;932;-46
2022/04/12 01:37:28;;;;;;;;;;;;;;;;;;1277986;23;805;-47
2022/04/12 01:37:58;;;;;;;;;;;;;;;;;;1278057;23;841;-47
2022/04/12 01:38:29;;;;;;;;;;;;;;;;;;1278177;23;1224;-46
2022/04/12 01:39:00;;;;;;;;;;;;;;;;;;1278262;23;1654;-46
2022/04/12 01:39:30;;;;;;;;;;;;;;;;;;1278032;23;1108;-47
2022/04/12 01:40:03;;;;;;;;;;;;;;;;;;1278143;23;873;-46
2022/04/12 01:40:34;;;;;;;;;;;;;;;;;;1278469;23;1007;-47
2022/04/12 01:41:04;;;;;;;;;;;;;;;;;;1278198;23;837;-46
2022/04/12 01:41:35;;;;;;;;;;;;;;;;;;1278163;23;829;-47
2022/04/12 01:42:06;;;;;;;;;;;;;;;;;;1278102;23;924;-47
2022/04/12 01:42:38;;;;;;;;;;;;;;;;;;1278425;23;921;-46
2022/04/12 01:43:10;;;;;;;;;;;;;;;;;;1278146;23;829;-47
2022/04/12 01:43:40;;;;;;;;;;;;;;;;;;1278345;23;665;-46
2022/04/12 01:44:11;;;;;;;;;;;;;;;;;;1277892;23;834;-47
2022/04/12 01:44:41;;;;;;;;;;;;;;;;;;1278505;23;873;-46
2022/04/12 01:45:11;;;;;;;;;;;;;;;;;;1278800;23;821;-47
2022/04/12 01:45:42;;;;;;;;;;;;;;;;;;1278211;23;1107;-47
2022/04/12 01:46:12;;;;;;;;;;;;;;;;;;1279004;23;825;-47
2022/04/12 01:46:42;;;;;;;;;;;;;;;;;;1278273;23;944;-47
2022/04/12 01:47:13;;;;;;;;;;;;;;;;;;1278617;23;821;-47
2022/04/12 01:47:43;;;;;;;;;;;;;;;;;;1278331;23;1086;-47
2022/04/12 01:48:13;;;;;;;;;;;;;;;;;;1277802;23;1498;-47
2022/04/12 01:48:44;;;;;;;;;;;;;;;;;;1277943;23;887;-47
2022/04/12 01:49:16;;;;;;;;;;;;;;;;;;1278195;23;856;-47
2022/04/12 01:49:48;;;;;;;;;;;;;;;;;;1277651;23;873;-47
2022/04/12 01:50:18;;;;;;;;;;;;;;;;;;1278937;23;770;-46
2022/04/12 01:50:49;;;;;;;;;;;;;;;;;;1278199;23;908;-47
2022/04/12 01:51:22;;;;;;;;;;;;;;;;;;1278708;23;794;-47
2022/04/12 01:51:52;;;;;;;;;;;;;;;;;;1277759;23;812;-47
2022/04/12 01:52:23;;;;;;;;;;;;;;;;;;1278626;23;865;-47
2022/04/12 01:52:53;;;;;;;;;;;;;;;;;;1278370;23;890;-47
2022/04/12 01:53:24;;;;;;;;;;;;;;;;;;1278581;23;797;-47
2022/04/12 01:53:54;;;;;;;;;;;;;;;;;;1278099;23;921;-47
2022/04/12 01:54:24;;;;;;;;;;;;;;;;;;1278829;23;1135;-47
2022/04/12 01:54:55;;;;;;;;;;;;;;;;;;1278014;23;840;-47
2022/04/12 01:55:25;;;;;;;;;;;;;;;;;;1278599;23;829;-47
2022/04/12 01:55:56;;;;;;;;;;;;;;;;;;1278379;23;1947;-47
2022/04/12 01:56:26;;;;;;;;;;;;;;;;;;1278538;23;916;-47
2022/04/12 01:56:56;;;;;;;;;;;;;;;;;;1277602;23;1230;-47
2022/04/12 01:57:27;;;;;;;;;;;;;;;;;;1271773;23;840;-47
2022/04/12 01:57:57;;;;;;;;;;;;;;;;;;1272041;23;762;-47
2022/04/12 01:58:27;;;;;;;;;;;;;;;;;;1272127;23;1134;-47
2022/04/12 01:58:59;;;;;;;;;;;;;;;;;;1271535;23;960;-47
2022/04/12 01:59:29;;;;;;;;;;;;;;;;;;1278551;23;938;-47
2022/04/12 01:59:59;;;;;;;;;;;;;;;;;;1278276;23;813;-47
2022/04/12 02:00:30;;;;;;;;;;;;;;;;;;1278682;23;1022;-46
2022/04/12 02:01:00;;;;;;;;;;;;;;;;;;1278364;23;968;-47
2022/04/12 02:01:31;;;;;;;;;;;;;;;;;;1278350;23;778;-47
2022/04/12 02:02:01;;;;;;;;;;;;;;;;;;1278199;23;872;-47
2022/04/12 02:02:32;;;;;;;;;;;;;;;;;;1278323;23;924;-47
2022/04/12 02:03:03;;;;;;;;;;;;;;;;;;1278454;23;964;-47
2022/04/12 02:03:33;;;;;;;;;;;;;;;;;;1279005;23;793;-47
2022/04/12 02:04:03;;;;;;;;;;;;;;;;;;1278466;23;801;-47
2022/04/12 02:04:36;;;;;;;;;;;;;;;;;;1278970;23;860;-46
2022/04/12 02:05:07;;;;;;;;;;;;;;;;;;1278416;23;797;-47
2022/04/12 02:05:39;;;;;;;;;;;;;;;;;;1278797;23;916;-47
2022/04/12 02:06:12;;;;;;;;;;;;;;;;;;1278227;23;1237;-47
2022/04/12 02:06:43;;;;;;;;;;;;;;;;;;1277610;23;1568;-47
2022/04/12 02:07:13;;;;;;;;;;;;;;;;;;1278637;23;845;-46
2022/04/12 02:07:46;;;;;;;;;;;;;;;;;;1278578;23;861;-47
2022/04/12 02:08:16;;;;;;;;;;;;;;;;;;1278447;23;916;-47
2022/04/12 02:08:46;;;;;;;;;;;;;;;;;;1278212;23;801;-46
2022/04/12 02:09:17;;;;;;;;;;;;;;;;;;1278161;23;1560;-47
2022/04/12 02:09:47;;;;;;;;;;;;;;;;;;1278011;23;888;-47
2022/04/12 02:10:20;;;;;;;;;;;;;;;;;;1277846;23;818;-47
2022/04/12 02:10:50;;;;;;;;;;;;;;;;;;1277203;23;817;-47
2022/04/12 02:11:20;;;;;;;;;;;;;;;;;;1278542;23;896;-46
2022/04/12 02:11:53;;;;;;;;;;;;;;;;;;1278060;23;1345;-47
2022/04/12 02:12:23;;;;;;;;;;;;;;;;;;1278549;23;793;-47
2022/04/12 02:12:53;;;;;;;;;;;;;;;;;;1277974;23;801;-47
2022/04/12 02:13:23;;;;;;;;;;;;;;;;;;1278528;23;913;-47
2022/04/12 02:13:54;;;;;;;;;;;;;;;;;;1277740;23;805;-47
2022/04/12 02:14:24;;;;;;;;;;;;;;;;;;1278482;23;880;-47
2022/04/12 02:14:56;;;;;;;;;;;;;;;;;;1278291;23;917;-47
2022/04/12 02:15:26;;;;;;;;;;;;;;;;;;1278128;23;935;-47
2022/04/12 02:15:57;;;;;;;;;;;;;;;;;;1277878;23;1904;-47
2022/04/12 02:16:27;;;;;;;;;;;;;;;;;;1272102;23;920;-47
2022/04/12 02:16:57;;;;;;;;;;;;;;;;;;1271812;23;1094;-47
2022/04/12 02:17:28;;;;;;;;;;;;;;;;;;1271887;23;1055;-47
2022/04/12 02:17:59;;;;;;;;;;;;;;;;;;1272127;23;865;-47
2022/04/12 02:18:29;;;;;;;;;;;;;;;;;;1278214;23;932;-47
2022/04/12 02:18:59;;;;;;;;;;;;;;;;;;1278615;23;880;-47
2022/04/12 02:19:32;;;;;;;;;;;;;;;;;;1278888;23;857;-47
2022/04/12 02:20:06;;;;;;;;;;;;;;;;;;1278406;23;809;-47
2022/04/12 02:20:36;;;;;;;;;;;;;;;;;;1278761;23;912;-47
2022/04/12 02:21:07;;;;;;;;;;;;;;;;;;1278460;23;964;-47
2022/04/12 02:21:38;;;;;;;;;;;;;;;;;;1278555;23;940;-47
2022/04/12 02:22:08;;;;;;;;;;;;;;;;;;1278850;23;889;-47
2022/04/12 02:22:38;;;;;;;;;;;;;;;;;;1278754;23;920;-47
2022/04/12 02:23:09;;;;;;;;;;;;;;;;;;1278594;23;582;-47
2022/04/12 02:23:39;;;;;;;;;;;;;;;;;;1278666;23;1093;-47
2022/04/12 02:24:09;;;;;;;;;;;;;;;;;;1278417;23;889;-47
2022/04/12 02:24:41;;;;;;;;;;;;;;;;;;1278547;23;936;-47
2022/04/12 02:25:11;;;;;;;;;;;;;;;;;;1278654;23;893;-47
2022/04/12 02:25:41;;;;;;;;;;;;;;;;;;1278421;23;814;-47
2022/04/12 02:26:12;;;;;;;;;;;;;;;;;;1278454;23;746;-47
2022/04/12 02:26:42;;;;;;;;;;;;;;;;;;1278153;23;873;-46
2022/04/12 02:27:12;;;;;;;;;;;;;;;;;;1278862;23;805;-46
2022/04/12 02:27:43;;;;;;;;;;;;;;;;;;1278088;23;944;-47
2022/04/12 02:28:14;;;;;;;;;;;;;;;;;;1278945;23;861;-46
2022/04/12 02:28:45;;;;;;;;;;;;;;;;;;1277358;23;979;-47
2022/04/12 02:29:15;;;;;;;;;;;;;;;;;;1278723;23;880;-48
2022/04/12 02:29:45;;;;;;;;;;;;;;;;;;1278220;23;964;-46
2022/04/12 02:30:16;;;;;;;;;;;;;;;;;;1278581;23;865;-46
2022/04/12 02:30:46;;;;;;;;;;;;;;;;;;1278083;23;837;-47
2022/04/12 02:31:16;;;;;;;;;;;;;;;;;;1278561;23;758;-47
2022/04/12 02:31:47;;;;;;;;;;;;;;;;;;1277912;23;944;-47
2022/04/12 02:32:17;;;;;;;;;;;;;;;;;;1278396;23;547;-47
2022/04/12 02:32:47;;;;;;;;;;;;;;;;;;1277877;23;1294;-47
2022/04/12 02:33:18;;;;;;;;;;;;;;;;;;1278489;23;838;-46
2022/04/12 02:33:48;;;;;;;;;;;;;;;;;;1278052;23;921;-47
2022/04/12 02:34:18;;;;;;;;;;;;;;;;;;1278378;23;944;-46
2022/04/12 02:34:48;;;;;;;;;;;;;;;;;;1278075;23;948;-47
2022/04/12 02:35:19;;;;;;;;;;;;;;;;;;1278322;23;823;-46
2022/04/12 02:35:49;;;;;;;;;;;;;;;;;;1277827;23;1901;-46
2022/04/12 02:36:19;;;;;;;;;;;;;;;;;;1278223;23;833;-46
2022/04/12 02:36:50;;;;;;;;;;;;;;;;;;1277863;23;935;-47
2022/04/12 02:37:20;;;;;;;;;;;;;;;;;;1278296;23;785;-47
2022/04/12 02:37:51;;;;;;;;;;;;;;;;;;1278226;23;909;-46
2022/04/12 02:38:21;;;;;;;;;;;;;;;;;;1278082;23;1732;-46
2022/04/12 02:38:51;;;;;;;;;;;;;;;;;;1278031;23;786;-47
2022/04/12 02:39:22;;;;;;;;;;;;;;;;;;1278471;23;931;-47
2022/04/12 02:39:52;;;;;;;;;;;;;;;;;;1277804;23;824;-46
2022/04/12 02:40:23;;;;;;;;;;;;;;;;;;1278313;23;973;-47
2022/04/12 02:40:53;;;;;;;;;;;;;;;;;;1278056;23;1672;-47
2022/04/12 02:41:23;;;;;;;;;;;;;;;;;;1278454;23;785;-46
2022/04/12 02:41:53;;;;;;;;;;;;;;;;;;1278060;23;769;-47
2022/04/12 02:42:24;;;;;;;;;;;;;;;;;;1278297;23;913;-47
2022/04/12 02:42:54;;;;;;;;;;;;;;;;;;1278325;23;810;-46
2022/04/12 02:43:24;;;;;;;;;;;;;;;;;;1277899;23;779;-47
2022/04/12 02:43:55;;;;;;;;;;;;;;;;;;1278008;23;755;-47
2022/04/12 02:44:25;;;;;;;;;;;;;;;;;;1278708;23;928;-47
2022/04/12 02:44:55;;;;;;;;;;;;;;;;;;1278538;23;813;-47
2022/04/12 02:45:26;;;;;;;;;;;;;;;;;;1278017;23;1091;-48
2022/04/12 02:45:58;;;;;;;;;;;;;;;;;;1277958;23;886;-47
2022/04/12 02:46:28;;;;;;;;;;;;;;;;;;1278420;23;822;-47
2022/04/12 02:46:59;;;;;;;;;;;;;;;;;;1277839;23;949;-47
2022/04/12 02:47:29;;;;;;;;;;;;;;;;;;1278657;23;857;-46
2022/04/12 02:48:00;;;;;;;;;;;;;;;;;;1278483;23;957;-47
2022/04/12 02:48:30;;;;;;;;;;;;;;;;;;1278800;23;916;-47
2022/04/12 02:49:00;;;;;;;;;;;;;;;;;;1278188;23;833;-46
2022/04/12 02:49:30;;;;;;;;;;;;;;;;;;1278510;23;979;-46
2022/04/12 02:50:01;;;;;;;;;;;;;;;;;;1277892;23;790;-47
2022/04/12 02:50:31;;;;;;;;;;;;;;;;;;1278378;23;931;-47
2022/04/12 02:51:01;;;;;;;;;;;;;;;;;;1277555;23;932;-47
2022/04/12 02:51:32;;;;;;;;;;;;;;;;;;1278142;23;952;-47
2022/04/12 02:52:02;;;;;;;;;;;;;;;;;;1278057;23;818;-47
2022/04/12 02:52:32;;;;;;;;;;;;;;;;;;1271504;23;1153;-46
2022/04/12 02:53:03;;;;;;;;;;;;;;;;;;1271499;23;920;-46
2022/04/12 02:53:33;;;;;;;;;;;;;;;;;;1271705;23;856;-47
2022/04/12 02:54:03;;;;;;;;;;;;;;;;;;1271338;23;960;-46
2022/04/12 02:54:34;;;;;;;;;;;;;;;;;;1277943;23;849;-47
2022/04/12 02:55:05;;;;;;;;;;;;;;;;;;1277510;23;869;-46
2022/04/12 02:55:35;;;;;;;;;;;;;;;;;;1277682;23;1942;-47
2022/04/12 02:56:05;;;;;;;;;;;;;;;;;;1277737;23;1128;-47
2022/04/12 02:56:36;;;;;;;;;;;;;;;;;;1278421;23;798;-47
2022/04/12 02:57:06;;;;;;;;;;;;;;;;;;1277715;23;960;-46
2022/04/12 02:57:36;;;;;;;;;;;;;;;;;;1278351;23;865;-47
2022/04/12 02:58:07;;;;;;;;;;;;;;;;;;1277777;23;770;-47
2022/04/12 02:58:37;;;;;;;;;;;;;;;;;;1278081;23;939;-47
2022/04/12 02:59:07;;;;;;;;;;;;;;;;;;1277879;23;896;-47
2022/04/12 02:59:38;;;;;;;;;;;;;;;;;;1278302;23;881;-46
2022/04/12 03:00:08;;;;;;;;;;;;;;;;;;1277999;23;849;-47
2022/04/12 03:00:38;;;;;;;;;;;;;;;;;;1278398;23;777;-47
2022/04/12 03:01:09;;;;;;;;;;;;;;;;;;1277835;23;888;-47
2022/04/12 03:01:39;;;;;;;;;;;;;;;;;;1278262;23;939;-47
2022/04/12 03:02:09;;;;;;;;;;;;;;;;;;1277739;23;889;-47
2022/04/12 03:02:40;;;;;;;;;;;;;;;;;;1278320;23;971;-47
2022/04/12 03:03:10;;;;;;;;;;;;;;;;;;1278382;23;884;-47
2022/04/12 03:03:40;;;;;;;;;;;;;;;;;;1278096;23;863;-47
2022/04/12 03:04:11;;;;;;;;;;;;;;;;;;1277887;23;818;-47
2022/04/12 03:04:41;;;;;;;;;;;;;;;;;;1278162;23;789;-47
2022/04/12 03:05:12;;;;;;;;;;;;;;;;;;1278049;23;909;-46
2022/04/12 03:05:42;;;;;;;;;;;;;;;;;;1277872;23;797;-46
2022/04/12 03:06:12;;;;;;;;;;;;;;;;;;1278199;23;876;-46
2022/04/12 03:06:43;;;;;;;;;;;;;;;;;;1278125;23;805;-46
2022/04/12 03:07:14;;;;;;;;;;;;;;;;;;1278213;23;860;-47
2022/04/12 03:07:45;;;;;;;;;;;;;;;;;;1277935;23;801;-47
2022/04/12 03:08:16;;;;;;;;;;;;;;;;;;1278536;23;857;-47
2022/04/12 03:08:49;;;;;;;;;;;;;;;;;;1278617;23;968;-47
2022/04/12 03:09:19;;;;;;;;;;;;;;;;;;1279252;23;746;-47
2022/04/12 03:09:50;;;;;;;;;;;;;;;;;;1278679;23;1144;-47
2022/04/12 03:10:20;;;;;;;;;;;;;;;;;;1278968;23;967;-46
2022/04/12 03:10:50;;;;;;;;;;;;;;;;;;1278639;23;916;-47
2022/04/12 03:11:20;;;;;;;;;;;;;;;;;;1278585;23;829;-47
2022/04/12 03:11:51;;;;;;;;;;;;;;;;;;1278153;23;1402;-46
2022/04/12 03:12:21;;;;;;;;;;;;;;;;;;1278561;23;900;-47
2022/04/12 03:12:51;;;;;;;;;;;;;;;;;;1278267;23;774;-46
2022/04/12 03:13:24;;;;;;;;;;;;;;;;;;1278142;23;899;-47
2022/04/12 03:13:54;;;;;;;;;;;;;;;;;;1278390;23;1174;-47
2022/04/12 03:14:25;;;;;;;;;;;;;;;;;;1278522;23;840;-47
2022/04/12 03:14:55;;;;;;;;;;;;;;;;;;1278244;23;885;-46
2022/04/12 03:15:28;;;;;;;;;;;;;;;;;;1278590;23;853;-46
2022/04/12 03:15:59;;;;;;;;;;;;;;;;;;1276625;23;1909;-47
2022/04/12 03:16:30;;;;;;;;;;;;;;;;;;1277353;23;1112;-47
2022/04/12 03:17:00;;;;;;;;;;;;;;;;;;1278465;23;787;-47
2022/04/12 03:17:31;;;;;;;;;;;;;;;;;;1272133;23;955;-47
2022/04/12 03:18:01;;;;;;;;;;;;;;;;;;1271971;23;878;-47
2022/04/12 03:18:31;;;;;;;;;;;;;;;;;;1272229;23;797;-47
2022/04/12 03:19:02;;;;;;;;;;;;;;;;;;1272267;23;897;-47
2022/04/12 03:19:32;;;;;;;;;;;;;;;;;;1278783;23;801;-46
2022/04/12 03:20:03;;;;;;;;;;;;;;;;;;1278740;23;908;-47
2022/04/12 03:20:34;;;;;;;;;;;;;;;;;;1278271;23;881;-46
2022/04/12 03:21:04;;;;;;;;;;;;;;;;;;1278479;23;956;-47
2022/04/12 03:21:35;;;;;;;;;;;;;;;;;;1279063;23;932;-46
2022/04/12 03:22:05;;;;;;;;;;;;;;;;;;1278240;23;936;-46
2022/04/12 03:22:35;;;;;;;;;;;;;;;;;;1278809;23;1305;-46
2022/04/12 03:23:06;;;;;;;;;;;;;;;;;;1278439;23;794;-46
2022/04/12 03:23:39;;;;;;;;;;;;;;;;;;1278991;23;975;-46
2022/04/12 03:24:10;;;;;;;;;;;;;;;;;;1278815;23;849;-46
2022/04/12 03:24:41;;;;;;;;;;;;;;;;;;1278530;23;1680;-47
2022/04/12 03:25:11;;;;;;;;;;;;;;;;;;1278233;23;2036;-47
2022/04/12 03:25:41;;;;;;;;;;;;;;;;;;1278978;23;972;-46
2022/04/12 03:26:12;;;;;;;;;;;;;;;;;;1280609;23;805;-48
2022/04/12 03:26:42;;;;;;;;;;;;;;;;;;1278564;23;1191;-48
2022/04/12 03:27:12;;;;;;;;;;;;;;;;;;1279258;23;821;-48
2022/04/12 03:27:43;;;;;;;;;;;;;;;;;;1278560;23;880;-48
2022/04/12 03:28:14;;;;;;;;;;;;;;;;;;1278809;23;810;-48
2022/04/12 03:28:44;;;;;;;;;;;;;;;;;;1278619;23;877;-48
2022/04/12 03:29:16;;;;;;;;;;;;;;;;;;1279620;23;802;-48
2022/04/12 03:29:46;;;;;;;;;;;;;;;;;;1278722;23;829;-48
2022/04/12 03:30:17;;;;;;;;;;;;;;;;;;1279093;23;840;-48
2022/04/12 03:30:47;;;;;;;;;;;;;;;;;;1279100;23;841;-48
2022/04/12 03:31:17;;;;;;;;;;;;;;;;;;1272324;23;1111;-48
2022/04/12 03:31:48;;;;;;;;;;;;;;;;;;1271872;23;925;-48
2022/04/12 03:32:18;;;;;;;;;;;;;;;;;;1272376;23;786;-48
2022/04/12 03:32:48;;;;;;;;;;;;;;;;;;1271300;23;1354;-49
2022/04/12 03:33:19;;;;;;;;;;;;;;;;;;1278975;23;940;-48
2022/04/12 03:33:52;;;;;;;;;;;;;;;;;;1278499;23;826;-49
2022/04/12 03:34:22;;;;;;;;;;;;;;;;;;1278933;23;887;-48
2022/04/12 03:34:53;;;;;;;;;;;;;;;;;;1278610;23;822;-48
2022/04/12 03:35:23;;;;;;;;;;;;;;;;;;1278552;23;860;-48
2022/04/12 03:35:54;;;;;;;;;;;;;;;;;;1278652;23;1909;-48
2022/04/12 03:36:24;;;;;;;;;;;;;;;;;;1278548;23;857;-49
2022/04/12 03:36:54;;;;;;;;;;;;;;;;;;1278274;23;742;-48
2022/04/12 03:37:25;;;;;;;;;;;;;;;;;;1279023;23;754;-48
2022/04/12 03:38:00;;;;;;;;;;;;;;;;;;1278563;23;789;-48
2022/04/12 03:38:30;;;;;;;;;;;;;;;;;;1278390;23;1180;-48